Time;durP1;ratioP1;P1;durP2;ratioP2;P2;SDS_P1;SDS_P2;PMS_P1;PMS_P2;Temp;Humidity;BMP_temperature;BMP_pressure;BME280_temperature;BME280_humidity;BME280_pressure;Samples;Min_cycle;Max_cycle;Signal;HPM_P1;HPM_P2
2021/05/27 00:00:21;;;;;;;11.8;10.5;;;;;;;11.5;70.5;101200;;;;
2021/05/27 00:04:21;;;;;;;11.8;10.5;;;;;;;11.6;70.4;101200;;;;
2021/05/27 00:08:21;;;;;;;11.8;10.5;;;;;;;11.3;72.0;101200;;;;
2021/05/27 00:12:21;;;;;;;11.8;10.5;;;;;;;11.6;70.9;101200;;;;
2021/05/27 00:14:20;;;;;;;11.8;10.5;;;;;;;11.5;71.7;101200;;;;
2021/05/27 00:16:21;;;;;;;17.2;13.1;;;;;;;11.4;71.5;101210;;;;
2021/05/27 00:22:21;;;;;;;17.2;13.1;;;;;;;11.6;70.7;101210;;;;
2021/05/27 00:24:21;;;;;;;17.2;13.1;;;;;;;11.5;70.9;101210;;;;
2021/05/27 00:26:20;;;;;;;17.2;13.1;;;;;;;11.4;71.2;101210;;;;
2021/05/27 00:28:20;;;;;;;17.2;13.1;;;;;;;11.3;72.0;101210;;;;
2021/05/27 00:42:20;;;;;;;28.8;25.9;;;;;;;11.2;71.2;101210;;;;
2021/05/27 00:50:21;;;;;;;28.8;25.9;;;;;;;11.3;71.3;101230;;;;
2021/05/27 00:52:20;;;;;;;28.8;25.9;;;;;;;11.2;71.0;101230;;;;
2021/05/27 00:56:21;;;;;;;29.7;24.9;;;;;;;11.1;71.2;101220;;;;
2021/05/27 01:02:20;;;;;;;29.7;24.9;;;;;;;11.0;70.9;101230;;;;
2021/05/27 01:06:21;;;;;;;29.7;24.9;;;;;;;11.1;70.9;101230;;;;
2021/05/27 01:08:20;;;;;;;29.7;24.9;;;;;;;10.9;71.0;101230;;;;
2021/05/27 01:10:20;;;;;;;29.7;24.9;;;;;;;11.1;71.0;101230;;;;
2021/05/27 01:16:21;;;;;;;29.2;23.9;;;;;;;11.1;70.2;101230;;;;
2021/05/27 01:20:21;;;;;;;29.2;23.9;;;;;;;11.2;70.0;101240;;;;
2021/05/27 01:30:20;;;;;;;29.2;23.9;;;;;;;11.3;70.2;101240;;;;
2021/05/27 01:32:20;;;;;;;29.2;23.9;;;;;;;11.2;70.4;101250;;;;
2021/05/27 01:34:20;;;;;;;29.2;23.9;;;;;;;11.1;70.9;101260;;;;
2021/05/27 01:36:20;;;;;;;23.0;20.0;;;;;;;11.2;70.4;101250;;;;
2021/05/27 01:38:21;;;;;;;23.0;20.0;;;;;;;11.0;70.8;101250;;;;
2021/05/27 01:40:21;;;;;;;23.0;20.0;;;;;;;11.1;70.5;101250;;;;
2021/05/27 01:44:21;;;;;;;23.0;20.0;;;;;;;11.0;70.5;101260;;;;
2021/05/27 01:46:20;;;;;;;23.0;20.0;;;;;;;10.9;70.5;101260;;;;
2021/05/27 01:58:21;;;;;;;25.1;16.4;;;;;;;10.8;69.8;101270;;;;
2021/05/27 02:04:20;;;;;;;25.1;16.4;;;;;;;10.9;69.2;101270;;;;
2021/05/27 02:08:21;;;;;;;25.1;16.4;;;;;;;10.8;69.4;101270;;;;
2021/05/27 02:12:21;;;;;;;25.1;16.4;;;;;;;10.9;69.0;101270;;;;
2021/05/27 02:14:21;;;;;;;25.1;16.4;;;;;;;10.8;68.8;101270;;;;
2021/05/27 02:18:21;;;;;;;17.6;12.0;;;;;;;10.7;68.9;101270;;;;
2021/05/27 02:24:20;;;;;;;17.6;12.0;;;;;;;10.6;68.7;101280;;;;
2021/05/27 02:26:21;;;;;;;17.6;12.0;;;;;;;10.7;68.5;101270;;;;
2021/05/27 02:28:20;;;;;;;17.6;12.0;;;;;;;10.6;68.4;101280;;;;
2021/05/27 02:32:21;;;;;;;17.6;12.0;;;;;;;10.5;69.0;101280;;;;
2021/05/27 02:34:20;;;;;;;17.6;12.0;;;;;;;10.6;68.9;101280;;;;
2021/05/27 02:36:20;;;;;;;16.9;10.6;;;;;;;10.7;68.6;101290;;;;
2021/05/27 02:42:21;;;;;;;16.9;10.6;;;;;;;10.8;68.3;101290;;;;
2021/05/27 02:44:21;;;;;;;16.9;10.6;;;;;;;10.6;68.7;101290;;;;
2021/05/27 02:52:20;;;;;;;16.9;10.6;;;;;;;10.5;69.1;101290;;;;
2021/05/27 02:58:21;;;;;;;16.8;11.2;;;;;;;10.6;69.1;101300;;;;
2021/05/27 03:00:21;;;;;;;16.8;11.2;;;;;;;10.5;69.0;101300;;;;
2021/05/27 03:04:21;;;;;;;16.8;11.2;;;;;;;10.6;69.1;101300;;;;
2021/05/27 03:08:21;;;;;;;16.8;11.2;;;;;;;10.5;69.3;101300;;;;
2021/05/27 03:10:20;;;;;;;16.8;11.2;;;;;;;10.6;69.4;101300;;;;
2021/05/27 03:12:20;;;;;;;16.8;11.2;;;;;;;10.7;68.7;101300;;;;
2021/05/27 03:16:21;;;;;;;17.4;11.9;;;;;;;10.6;69.1;101300;;;;
2021/05/27 03:24:20;;;;;;;17.4;11.9;;;;;;;10.5;69.4;101300;;;;
2021/05/27 03:32:21;;;;;;;17.4;11.9;;;;;;;10.6;69.5;101310;;;;
2021/05/27 03:36:21;;;;;;;17.2;12.2;;;;;;;10.4;70.2;101310;;;;
2021/05/27 03:38:21;;;;;;;17.2;12.2;;;;;;;10.6;69.9;101320;;;;
2021/05/27 03:42:20;;;;;;;17.2;12.2;;;;;;;10.4;70.4;101310;;;;
2021/05/27 03:44:20;;;;;;;17.2;12.2;;;;;;;10.5;70.4;101310;;;;
2021/05/27 03:46:20;;;;;;;17.2;12.2;;;;;;;10.4;70.2;101310;;;;
2021/05/27 03:50:21;;;;;;;17.2;12.2;;;;;;;10.3;70.8;101320;;;;
2021/05/27 03:54:20;;;;;;;20.9;11.7;;;;;;;10.4;70.9;101320;;;;
2021/05/27 03:56:20;;;;;;;20.9;11.7;;;;;;;10.3;71.0;101320;;;;
2021/05/27 04:02:20;;;;;;;20.9;11.7;;;;;;;10.1;71.9;101320;;;;
2021/05/27 04:10:21;;;;;;;20.9;11.7;;;;;;;10.2;71.7;101320;;;;
2021/05/27 04:14:21;;;;;;;20.0;13.0;;;;;;;10.4;71.4;101330;;;;
2021/05/27 04:16:20;;;;;;;20.0;13.0;;;;;;;10.3;72.3;101330;;;;
2021/05/27 04:18:22;;;;;;;20.0;13.0;;;;;;;10.2;72.3;101330;;;;
2021/05/27 04:26:21;;;;;;;20.0;13.0;;;;;;;10.3;72.6;101330;;;;
2021/05/27 04:28:21;;;;;;;20.0;13.0;;;;;;;10.2;73.2;101340;;;;
2021/05/27 04:34:21;;;;;;;22.7;14.4;;;;;;;10.0;73.5;101330;;;;
2021/05/27 04:42:21;;;;;;;22.7;14.4;;;;;;;10.1;73.9;101330;;;;
2021/05/27 04:52:21;;;;;;;22.7;14.4;;;;;;;10.0;74.5;101340;;;;
2021/05/27 04:56:21;;;;;;;24.0;13.6;;;;;;;9.9;75.4;101350;;;;
2021/05/27 05:00:23;;;;;;;24.0;13.6;;;;;;;10.1;75.2;101340;;;;
2021/05/27 05:06:20;;;;;;;24.0;13.6;;;;;;;10.2;74.6;101350;;;;
2021/05/27 05:10:21;;;;;;;24.0;13.6;;;;;;;10.1;74.7;101360;;;;
2021/05/27 05:18:21;;;;;;;26.4;18.9;;;;;;;10.2;75.7;101360;;;;
2021/05/27 05:22:21;;;;;;;26.4;18.9;;;;;;;10.1;75.6;101370;;;;
2021/05/27 05:24:20;;;;;;;26.4;18.9;;;;;;;10.0;76.3;101370;;;;
2021/05/27 05:26:21;;;;;;;26.4;18.9;;;;;;;10.1;76.1;101370;;;;
2021/05/27 05:30:21;;;;;;;26.4;18.9;;;;;;;10.2;75.9;101370;;;;
2021/05/27 05:32:21;;;;;;;26.4;18.9;;;;;;;10.3;76.1;101370;;;;
2021/05/27 05:34:21;;;;;;;27.6;19.7;;;;;;;10.4;75.8;101370;;;;
2021/05/27 05:36:21;;;;;;;27.6;19.7;;;;;;;10.3;75.5;101370;;;;
2021/05/27 05:40:21;;;;;;;27.6;19.7;;;;;;;10.2;76.2;101370;;;;
2021/05/27 05:44:21;;;;;;;27.6;19.7;;;;;;;10.3;76.7;101370;;;;
2021/05/27 05:46:21;;;;;;;27.6;19.7;;;;;;;10.2;76.5;101370;;;;
2021/05/27 05:52:21;;;;;;;27.6;19.7;;;;;;;10.0;77.2;101380;;;;
2021/05/27 05:54:21;;;;;;;27.5;18.8;;;;;;;10.2;76.7;101380;;;;
2021/05/27 05:58:21;;;;;;;27.5;18.8;;;;;;;10.3;76.9;101380;;;;
2021/05/27 06:00:21;;;;;;;27.5;18.8;;;;;;;10.1;76.9;101380;;;;
2021/05/27 06:08:21;;;;;;;27.5;18.8;;;;;;;10.2;77.4;101390;;;;
2021/05/27 06:10:21;;;;;;;27.5;18.8;;;;;;;10.1;77.1;101390;;;;
2021/05/27 06:16:21;;;;;;;30.1;17.4;;;;;;;10.0;77.4;101390;;;;
2021/05/27 06:18:21;;;;;;;30.1;17.4;;;;;;;10.1;77.6;101390;;;;
2021/05/27 06:24:21;;;;;;;30.1;17.4;;;;;;;10.2;78.1;101400;;;;
2021/05/27 06:30:21;;;;;;;30.1;17.4;;;;;;;10.1;78.0;101400;;;;
2021/05/27 06:36:21;;;;;;;21.3;13.7;;;;;;;10.0;78.3;101400;;;;
2021/05/27 06:38:21;;;;;;;21.3;13.7;;;;;;;10.1;77.9;101410;;;;
2021/05/27 06:40:21;;;;;;;21.3;13.7;;;;;;;10.0;78.0;101410;;;;
2021/05/27 06:42:24;;;;;;;21.3;13.7;;;;;;;10.1;78.1;101410;;;;
2021/05/27 06:46:21;;;;;;;21.3;13.7;;;;;;;10.2;77.7;101410;;;;
2021/05/27 06:54:21;;;;;;;23.2;16.3;;;;;;;10.1;78.4;101410;;;;
2021/05/27 07:00:21;;;;;;;23.2;16.3;;;;;;;10.2;78.1;101420;;;;
2021/05/27 07:06:22;;;;;;;23.2;16.3;;;;;;;10.1;78.2;101430;;;;
2021/05/27 07:08:21;;;;;;;23.2;16.3;;;;;;;10.2;78.7;101430;;;;
2021/05/27 07:10:21;;;;;;;23.2;16.3;;;;;;;10.1;78.0;101430;;;;
2021/05/27 07:14:25;;;;;;;22.2;15.5;;;;;;;10.1;78.6;101430;;;;
2021/05/27 07:22:21;;;;;;;22.2;15.5;;;;;;;10.0;78.8;101440;;;;
2021/05/27 07:24:22;;;;;;;22.2;15.5;;;;;;;9.9;79.9;101440;;;;
2021/05/27 07:28:23;;;;;;;22.2;15.5;;;;;;;10.0;78.7;101440;;;;
2021/05/27 07:38:21;;;;;;;17.8;11.5;;;;;;;10.1;79.3;101450;;;;
2021/05/27 07:50:21;;;;;;;17.8;11.5;;;;;;;10.0;79.6;101460;;;;
2021/05/27 07:52:21;;;;;;;17.8;11.5;;;;;;;10.2;78.8;101460;;;;
2021/05/27 07:56:21;;;;;;;23.3;11.2;;;;;;;10.1;79.3;101460;;;;
2021/05/27 08:00:21;;;;;;;23.3;11.2;;;;;;;10.0;79.3;101470;;;;
2021/05/27 08:02:21;;;;;;;23.3;11.2;;;;;;;10.2;79.2;101470;;;;
2021/05/27 08:04:21;;;;;;;23.3;11.2;;;;;;;10.1;79.2;101470;;;;
2021/05/27 08:10:21;;;;;;;23.3;11.2;;;;;;;10.2;79.8;101470;;;;
2021/05/27 08:14:21;;;;;;;23.8;13.1;;;;;;;10.1;79.5;101480;;;;
2021/05/27 08:16:21;;;;;;;23.8;13.1;;;;;;;10.2;79.2;101480;;;;
2021/05/27 08:18:21;;;;;;;23.8;13.1;;;;;;;10.1;80.0;101480;;;;
2021/05/27 08:20:21;;;;;;;23.8;13.1;;;;;;;10.3;79.5;101480;;;;
2021/05/27 08:22:21;;;;;;;23.8;13.1;;;;;;;10.2;79.7;101480;;;;
2021/05/27 08:24:21;;;;;;;23.8;13.1;;;;;;;10.1;79.2;101480;;;;
2021/05/27 08:26:21;;;;;;;23.8;13.1;;;;;;;10.0;80.0;101480;;;;
2021/05/27 08:28:21;;;;;;;23.8;13.1;;;;;;;10.2;80.0;101490;;;;
2021/05/27 08:30:21;;;;;;;23.8;13.1;;;;;;;10.0;80.1;101490;;;;
2021/05/27 08:32:21;;;;;;;23.8;13.1;;;;;;;10.1;80.1;101490;;;;
2021/05/27 08:34:21;;;;;;;18.7;10.9;;;;;;;10.0;79.9;101490;;;;
2021/05/27 08:38:21;;;;;;;18.7;10.9;;;;;;;9.9;80.1;101490;;;;
2021/05/27 08:40:21;;;;;;;18.7;10.9;;;;;;;10.0;80.6;101500;;;;
2021/05/27 08:46:21;;;;;;;18.7;10.9;;;;;;;10.1;80.5;101500;;;;
2021/05/27 08:48:21;;;;;;;18.7;10.9;;;;;;;10.2;80.4;101500;;;;
2021/05/27 08:50:29;;;;;;;18.7;10.9;;;;;;;10.1;79.6;101500;;;;
2021/05/27 08:56:21;;;;;;;17.1;10.5;;;;;;;10.0;80.7;101510;;;;
2021/05/27 08:58:21;;;;;;;17.1;10.5;;;;;;;10.2;80.6;101510;;;;
2021/05/27 09:00:21;;;;;;;17.1;10.5;;;;;;;10.4;80.1;101510;;;;
2021/05/27 09:04:21;;;;;;;17.1;10.5;;;;;;;10.5;79.6;101510;;;;
2021/05/27 09:06:21;;;;;;;17.1;10.5;;;;;;;10.4;79.3;101510;;;;
2021/05/27 09:10:21;;;;;;;17.1;10.5;;;;;;;10.3;79.5;101520;;;;
2021/05/27 09:12:21;;;;;;;17.1;10.5;;;;;;;10.2;80.0;101520;;;;
2021/05/27 09:16:21;;;;;;;15.2;9.7;;;;;;;10.3;80.2;101520;;;;
2021/05/27 09:24:21;;;;;;;15.2;9.7;;;;;;;10.4;80.2;101530;;;;
2021/05/27 09:28:22;;;;;;;15.2;9.7;;;;;;;10.5;80.0;101530;;;;
2021/05/27 09:30:30;;;;;;;15.2;9.7;;;;;;;10.6;80.4;101530;;;;
2021/05/27 09:32:21;;;;;;;15.2;9.7;;;;;;;10.7;80.0;101530;;;;
2021/05/27 09:34:21;;;;;;;18.2;10.9;;;;;;;10.8;79.7;101530;;;;
2021/05/27 09:42:21;;;;;;;18.2;10.9;;;;;;;10.9;80.0;101540;;;;
2021/05/27 09:54:21;;;;;;;16.0;9.4;;;;;;;10.8;79.6;101550;;;;
2021/05/27 10:00:21;;;;;;;16.0;9.4;;;;;;;10.9;79.8;101560;;;;
2021/05/27 10:04:21;;;;;;;16.0;9.4;;;;;;;10.7;79.3;101560;;;;
2021/05/27 10:06:21;;;;;;;16.0;9.4;;;;;;;10.8;79.5;101570;;;;
2021/05/27 10:08:30;;;;;;;16.0;9.4;;;;;;;10.7;79.4;101570;;;;
2021/05/27 10:10:21;;;;;;;16.0;9.4;;;;;;;10.6;79.4;101570;;;;
2021/05/27 10:18:21;;;;;;;17.6;9.2;;;;;;;10.7;79.5;101580;;;;
2021/05/27 10:30:21;;;;;;;17.6;9.2;;;;;;;10.9;79.2;101580;;;;
2021/05/27 10:34:21;;;;;;;15.8;9.3;;;;;;;10.8;78.1;101580;;;;
2021/05/27 10:40:21;;;;;;;15.8;9.3;;;;;;;10.9;78.7;101590;;;;
2021/05/27 10:42:21;;;;;;;15.8;9.3;;;;;;;10.8;79.0;101590;;;;
2021/05/27 10:44:21;;;;;;;15.8;9.3;;;;;;;10.9;78.6;101590;;;;
2021/05/27 10:48:23;;;;;;;15.8;9.3;;;;;;;10.8;78.5;101600;;;;
2021/05/27 10:50:28;;;;;;;15.8;9.3;;;;;;;10.7;79.4;101600;;;;
2021/05/27 10:52:21;;;;;;;15.8;9.3;;;;;;;10.6;78.8;101600;;;;
2021/05/27 10:54:21;;;;;;;18.9;10.4;;;;;;;10.7;79.1;101610;;;;
2021/05/27 10:58:21;;;;;;;18.9;10.4;;;;;;;10.8;79.7;101600;;;;
2021/05/27 11:00:21;;;;;;;18.9;10.4;;;;;;;10.9;79.5;101610;;;;
2021/05/27 11:04:21;;;;;;;18.9;10.4;;;;;;;11.0;78.7;101600;;;;
2021/05/27 11:08:25;;;;;;;18.9;10.4;;;;;;;10.9;78.8;101630;;;;
2021/05/27 11:12:21;;;;;;;18.9;10.4;;;;;;;11.0;77.8;101610;;;;
2021/05/27 11:16:21;;;;;;;20.4;9.9;;;;;;;11.1;78.0;101610;;;;
2021/05/27 11:18:21;;;;;;;20.4;9.9;;;;;;;11.3;78.4;101610;;;;
2021/05/27 11:22:21;;;;;;;20.4;9.9;;;;;;;11.4;77.8;101600;;;;
2021/05/27 11:26:21;;;;;;;20.4;9.9;;;;;;;11.2;76.5;101610;;;;
2021/05/27 11:30:21;;;;;;;20.4;9.9;;;;;;;11.4;77.5;101620;;;;
2021/05/27 11:32:21;;;;;;;20.4;9.9;;;;;;;11.3;77.1;101620;;;;
2021/05/27 11:36:21;;;;;;;17.7;10.0;;;;;;;11.2;77.0;101630;;;;
2021/05/27 11:40:21;;;;;;;17.7;10.0;;;;;;;11.3;77.3;101630;;;;
2021/05/27 11:44:21;;;;;;;17.7;10.0;;;;;;;11.4;77.2;101630;;;;
2021/05/27 11:46:21;;;;;;;17.7;10.0;;;;;;;11.3;76.7;101630;;;;
2021/05/27 11:50:21;;;;;;;17.7;10.0;;;;;;;11.2;76.1;101630;;;;
2021/05/27 11:58:21;;;;;;;23.2;10.9;;;;;;;11.3;76.4;101630;;;;
2021/05/27 12:02:21;;;;;;;23.2;10.9;;;;;;;11.2;77.0;101640;;;;
2021/05/27 12:04:21;;;;;;;23.2;10.9;;;;;;;11.1;76.3;101640;;;;
2021/05/27 12:06:21;;;;;;;23.2;10.9;;;;;;;11.2;77.0;101650;;;;
2021/05/27 12:08:21;;;;;;;23.2;10.9;;;;;;;11.1;76.9;101650;;;;
2021/05/27 12:12:21;;;;;;;13.8;10.0;;;;;;;11.2;76.8;101660;;;;
2021/05/27 12:18:21;;;;;;;13.8;10.0;;;;;;;11.3;76.2;101660;;;;
2021/05/27 12:20:21;;;;;;;13.8;10.0;;;;;;;11.4;75.6;101660;;;;
2021/05/27 12:22:21;;;;;;;13.8;10.0;;;;;;;11.3;76.3;101660;;;;
2021/05/27 12:26:21;;;;;;;13.8;10.0;;;;;;;11.2;76.0;101650;;;;
2021/05/27 12:28:21;;;;;;;13.8;10.0;;;;;;;11.3;76.1;101670;;;;
2021/05/27 12:30:21;;;;;;;13.8;10.0;;;;;;;11.4;76.1;101670;;;;
2021/05/27 12:32:21;;;;;;;14.7;9.0;;;;;;;11.3;76.0;101670;;;;
2021/05/27 12:38:21;;;;;;;14.7;9.0;;;;;;;11.1;76.2;101680;;;;
2021/05/27 12:40:23;;;;;;;14.7;9.0;;;;;;;11.2;76.1;101680;;;;
2021/05/27 12:42:21;;;;;;;14.7;9.0;;;;;;;11.1;76.1;101680;;;;
2021/05/27 12:46:22;;;;;;;14.7;9.0;;;;;;;11.2;76.4;101680;;;;
2021/05/27 12:48:21;;;;;;;14.7;9.0;;;;;;;11.3;76.0;101690;;;;
2021/05/27 12:50:21;;;;;;;14.7;9.0;;;;;;;11.2;76.2;101690;;;;
2021/05/27 12:52:21;;;;;;;14.2;8.8;;;;;;;11.4;76.2;101680;;;;
2021/05/27 12:56:22;;;;;;;14.2;8.8;;;;;;;11.5;75.6;101680;;;;
2021/05/27 12:58:21;;;;;;;14.2;8.8;;;;;;;11.4;75.8;101680;;;;
2021/05/27 13:00:23;;;;;;;14.2;8.8;;;;;;;11.6;76.0;101680;;;;
2021/05/27 13:02:21;;;;;;;14.2;8.8;;;;;;;11.8;75.8;101690;;;;
2021/05/27 13:10:21;;;;;;;14.2;8.8;;;;;;;11.7;74.7;101690;;;;
2021/05/27 13:12:27;;;;;;;11.3;7.3;;;;;;;11.6;75.1;101680;;;;
2021/05/27 13:18:21;;;;;;;11.3;7.3;;;;;;;11.7;74.8;101690;;;;
2021/05/27 13:20:21;;;;;;;11.3;7.3;;;;;;;11.6;74.3;101690;;;;
2021/05/27 13:22:21;;;;;;;11.3;7.3;;;;;;;11.7;74.8;101700;;;;
2021/05/27 13:24:21;;;;;;;11.3;7.3;;;;;;;11.8;74.4;101700;;;;
2021/05/27 13:28:21;;;;;;;11.3;7.3;;;;;;;11.9;74.2;101700;;;;
2021/05/27 13:32:21;;;;;;;12.0;7.2;;;;;;;12.0;73.5;101710;;;;
2021/05/27 13:34:21;;;;;;;12.0;7.2;;;;;;;11.8;74.0;101710;;;;
2021/05/27 13:36:21;;;;;;;12.0;7.2;;;;;;;11.9;74.3;101710;;;;
2021/05/27 13:42:21;;;;;;;12.0;7.2;;;;;;;12.0;73.6;101720;;;;
2021/05/27 13:44:21;;;;;;;12.0;7.2;;;;;;;12.1;74.0;101720;;;;
2021/05/27 13:46:21;;;;;;;12.0;7.2;;;;;;;11.9;73.7;101720;;;;
2021/05/27 13:48:21;;;;;;;12.0;7.2;;;;;;;11.8;74.1;101720;;;;
2021/05/27 13:50:24;;;;;;;12.0;7.2;;;;;;;12.0;74.1;101720;;;;
2021/05/27 13:52:21;;;;;;;13.5;7.5;;;;;;;11.9;74.0;101730;;;;
2021/05/27 13:54:21;;;;;;;13.5;7.5;;;;;;;11.8;74.1;101740;;;;
2021/05/27 13:56:25;;;;;;;13.5;7.5;;;;;;;11.7;74.7;101730;;;;
2021/05/27 13:58:21;;;;;;;13.5;7.5;;;;;;;11.6;74.6;101740;;;;
2021/05/27 14:02:21;;;;;;;13.5;7.5;;;;;;;11.8;74.6;101740;;;;
2021/05/27 14:06:22;;;;;;;13.5;7.5;;;;;;;11.9;74.3;101740;;;;
2021/05/27 14:08:21;;;;;;;13.5;7.5;;;;;;;12.0;74.6;101740;;;;
2021/05/27 14:10:21;;;;;;;13.5;7.5;;;;;;;12.1;74.0;101740;;;;
2021/05/27 14:20:22;;;;;;;12.5;7.8;;;;;;;12.3;73.4;101750;;;;
2021/05/27 14:22:21;;;;;;;12.5;7.8;;;;;;;12.4;73.5;101750;;;;
2021/05/27 14:24:21;;;;;;;12.5;7.8;;;;;;;12.5;72.9;101750;;;;
2021/05/27 14:26:31;;;;;;;12.5;7.8;;;;;;;12.4;73.1;101750;;;;
2021/05/27 14:28:21;;;;;;;12.5;7.8;;;;;;;12.5;73.0;101750;;;;
2021/05/27 14:30:21;;;;;;;12.5;7.8;;;;;;;12.8;73.4;101750;;;;
2021/05/27 14:32:21;;;;;;;12.9;7.7;;;;;;;12.9;72.5;101750;;;;
2021/05/27 14:36:21;;;;;;;12.9;7.7;;;;;;;12.8;71.6;101750;;;;
2021/05/27 14:38:21;;;;;;;12.9;7.7;;;;;;;13.0;72.0;101750;;;;
2021/05/27 14:40:21;;;;;;;12.9;7.7;;;;;;;13.1;71.4;101750;;;;
2021/05/27 14:46:21;;;;;;;12.9;7.7;;;;;;;13.0;70.7;101760;;;;
2021/05/27 14:50:30;;;;;;;12.9;7.7;;;;;;;12.7;70.0;101760;;;;
2021/05/27 14:56:21;;;;;;;10.8;5.5;;;;;;;12.6;70.4;101770;;;;
2021/05/27 15:08:21;;;;;;;10.8;5.5;;;;;;;12.8;70.0;101770;;;;
2021/05/27 15:10:21;;;;;;;10.8;5.5;;;;;;;12.7;69.3;101780;;;;
2021/05/27 15:14:21;;;;;;;12.3;4.5;;;;;;;12.6;69.8;101780;;;;
2021/05/27 15:16:21;;;;;;;12.3;4.5;;;;;;;12.7;69.7;101780;;;;
2021/05/27 15:18:21;;;;;;;12.3;4.5;;;;;;;12.8;69.6;101790;;;;
2021/05/27 15:20:21;;;;;;;12.3;4.5;;;;;;;12.7;69.7;101790;;;;
2021/05/27 15:28:21;;;;;;;12.3;4.5;;;;;;;12.5;69.4;101800;;;;
2021/05/27 15:30:21;;;;;;;12.3;4.5;;;;;;;12.6;69.8;101800;;;;
2021/05/27 15:38:22;;;;;;;7.6;3.9;;;;;;;12.7;68.4;101800;;;;
2021/05/27 15:40:21;;;;;;;7.6;3.9;;;;;;;12.9;68.4;101800;;;;
2021/05/27 15:42:22;;;;;;;7.6;3.9;;;;;;;12.8;67.9;101800;;;;
2021/05/27 15:50:31;;;;;;;7.6;3.9;;;;;;;12.8;68.1;101810;;;;
2021/05/27 15:52:22;;;;;;;5.7;3.5;;;;;;;12.9;67.9;101810;;;;
2021/05/27 15:54:21;;;;;;;5.7;3.5;;;;;;;12.8;67.2;101820;;;;
2021/05/27 15:56:21;;;;;;;5.7;3.5;;;;;;;12.9;67.6;101810;;;;
2021/05/27 16:00:21;;;;;;;5.7;3.5;;;;;;;12.8;67.5;101820;;;;
2021/05/27 16:04:21;;;;;;;5.7;3.5;;;;;;;12.6;67.4;101830;;;;
2021/05/27 16:16:21;;;;;;;7.3;3.6;;;;;;;12.7;68.2;101840;;;;
2021/05/27 16:22:22;;;;;;;7.3;3.6;;;;;;;12.6;67.9;101840;;;;
2021/05/27 16:26:21;;;;;;;7.3;3.6;;;;;;;12.7;67.9;101850;;;;
2021/05/27 16:28:30;;;;;;;7.3;3.6;;;;;;;12.6;67.8;101850;;;;
2021/05/27 16:32:21;;;;;;;8.2;3.7;;;;;;;12.7;67.8;101850;;;;
2021/05/27 16:34:30;;;;;;;8.2;3.7;;;;;;;12.8;68.0;101850;;;;
2021/05/27 16:38:24;;;;;;;8.2;3.7;;;;;;;12.9;67.6;101850;;;;
2021/05/27 16:42:21;;;;;;;8.2;3.7;;;;;;;13.0;67.2;101860;;;;
2021/05/27 16:52:21;;;;;;;9.1;4.5;;;;;;;12.8;67.6;101870;;;;
2021/05/27 17:00:21;;;;;;;9.1;4.5;;;;;;;12.6;67.3;101860;;;;
2021/05/27 17:06:22;;;;;;;9.1;4.5;;;;;;;12.7;67.4;101870;;;;
2021/05/27 17:10:21;;;;;;;9.1;4.5;;;;;;;12.6;67.2;101870;;;;
2021/05/27 17:14:21;;;;;;;7.8;4.0;;;;;;;12.7;67.9;101870;;;;
2021/05/27 17:18:21;;;;;;;7.8;4.0;;;;;;;12.8;67.8;101870;;;;
2021/05/27 17:22:21;;;;;;;7.8;4.0;;;;;;;12.7;67.5;101870;;;;
2021/05/27 17:24:21;;;;;;;7.8;4.0;;;;;;;12.9;67.4;101880;;;;
2021/05/27 17:26:21;;;;;;;7.8;4.0;;;;;;;12.8;67.3;101880;;;;
2021/05/27 17:28:22;;;;;;;7.8;4.0;;;;;;;12.7;67.7;101880;;;;
2021/05/27 17:30:21;;;;;;;7.8;4.0;;;;;;;12.8;67.6;101880;;;;
2021/05/27 17:32:21;;;;;;;6.7;3.8;;;;;;;12.9;67.6;101880;;;;
2021/05/27 17:34:21;;;;;;;6.7;3.8;;;;;;;13.0;67.2;101890;;;;
2021/05/27 17:46:21;;;;;;;6.7;3.8;;;;;;;12.9;66.9;101890;;;;
2021/05/27 17:48:21;;;;;;;6.7;3.8;;;;;;;12.8;67.2;101890;;;;
2021/05/27 17:52:21;;;;;;;8.7;3.4;;;;;;;12.7;67.1;101900;;;;
2021/05/27 17:54:21;;;;;;;8.7;3.4;;;;;;;12.8;67.1;101900;;;;
2021/05/27 17:56:21;;;;;;;8.7;3.4;;;;;;;12.9;67.3;101900;;;;
2021/05/27 17:58:21;;;;;;;8.7;3.4;;;;;;;12.8;67.0;101900;;;;
2021/05/27 18:00:23;;;;;;;8.7;3.4;;;;;;;12.9;66.9;101910;;;;
2021/05/27 18:02:21;;;;;;;8.7;3.4;;;;;;;12.8;66.9;101910;;;;
2021/05/27 18:06:21;;;;;;;8.7;3.4;;;;;;;12.9;67.2;101910;;;;
2021/05/27 18:08:25;;;;;;;8.7;3.4;;;;;;;13.0;66.8;101910;;;;
2021/05/27 18:10:21;;;;;;;8.7;3.4;;;;;;;12.9;66.3;101910;;;;
2021/05/27 18:18:25;;;;;;;6.1;4.2;;;;;;;12.8;66.6;101910;;;;
2021/05/27 18:20:21;;;;;;;6.1;4.2;;;;;;;12.9;66.8;101910;;;;
2021/05/27 18:22:21;;;;;;;6.1;4.2;;;;;;;12.8;66.9;101910;;;;
2021/05/27 18:24:21;;;;;;;6.1;4.2;;;;;;;12.9;66.9;101910;;;;
2021/05/27 18:30:21;;;;;;;6.1;4.2;;;;;;;12.8;66.6;101910;;;;
2021/05/27 18:32:21;;;;;;;8.4;4.0;;;;;;;12.9;66.9;101920;;;;
2021/05/27 18:34:22;;;;;;;8.4;4.0;;;;;;;12.8;66.9;101920;;;;
2021/05/27 18:36:21;;;;;;;8.4;4.0;;;;;;;12.7;67.0;101930;;;;
2021/05/27 18:38:21;;;;;;;8.4;4.0;;;;;;;12.8;66.9;101930;;;;
2021/05/27 18:41:43;;;;;;;8.4;4.0;;;;;;;12.8;66.8;101930;;;;
2021/05/27 18:46:21;;;;;;;8.4;4.0;;;;;;;12.9;67.1;101930;;;;
2021/05/27 18:48:21;;;;;;;8.4;4.0;;;;;;;12.8;67.1;101930;;;;
2021/05/27 18:54:21;;;;;;;4.5;3.3;;;;;;;12.7;67.0;101940;;;;
2021/05/27 18:58:21;;;;;;;4.5;3.3;;;;;;;12.6;67.8;101940;;;;
2021/05/27 19:06:21;;;;;;;4.5;3.3;;;;;;;12.5;67.4;101950;;;;
2021/05/27 19:08:21;;;;;;;4.5;3.3;;;;;;;12.6;67.4;101950;;;;
2021/05/27 19:10:22;;;;;;;4.5;3.3;;;;;;;12.7;67.4;101950;;;;
2021/05/27 19:12:22;;;;;;;7.9;4.1;;;;;;;12.6;67.4;101950;;;;
2021/05/27 19:14:21;;;;;;;7.9;4.1;;;;;;;12.7;67.2;101950;;;;
2021/05/27 19:18:21;;;;;;;7.9;4.1;;;;;;;12.6;67.5;101960;;;;
2021/05/27 19:20:21;;;;;;;7.9;4.1;;;;;;;12.7;67.1;101960;;;;
2021/05/27 19:22:21;;;;;;;7.9;4.1;;;;;;;12.8;67.2;101960;;;;
2021/05/27 19:24:23;;;;;;;7.9;4.1;;;;;;;12.7;67.5;101960;;;;
2021/05/27 19:28:21;;;;;;;7.9;4.1;;;;;;;12.6;67.4;101960;;;;
2021/05/27 19:32:49;;;;;;;6.3;3.4;;;;;;;12.6;67.0;101960;;;;
2021/05/27 19:40:21;;;;;;;6.3;3.4;;;;;;;12.7;67.4;101970;;;;
2021/05/27 19:42:22;;;;;;;6.3;3.4;;;;;;;12.6;67.4;101970;;;;
2021/05/27 19:50:21;;;;;;;6.3;3.4;;;;;;;12.7;67.7;101980;;;;
2021/05/27 19:51:34;;;;;;;6.0;3.1;;;;;;;12.7;67.7;101980;;;;
2021/05/27 19:52:21;;;;;;;6.0;3.1;;;;;;;12.6;67.1;101980;;;;
2021/05/27 19:54:21;;;;;;;6.0;3.1;;;;;;;12.5;67.2;101990;;;;
2021/05/27 20:06:21;;;;;;;6.0;3.1;;;;;;;12.4;67.4;102000;;;;
2021/05/27 20:12:21;;;;;;;4.8;3.5;;;;;;;12.3;67.5;102010;;;;
2021/05/27 20:14:21;;;;;;;4.8;3.5;;;;;;;12.1;68.0;102010;;;;
2021/05/27 20:16:21;;;;;;;4.8;3.5;;;;;;;12.2;67.8;102020;;;;
2021/05/27 20:18:21;;;;;;;4.8;3.5;;;;;;;12.0;67.9;102020;;;;
2021/05/27 20:24:23;;;;;;;4.8;3.5;;;;;;;11.9;67.9;102030;;;;
2021/05/27 20:26:21;;;;;;;4.8;3.5;;;;;;;12.0;67.8;102030;;;;
2021/05/27 20:28:21;;;;;;;4.8;3.5;;;;;;;11.9;67.7;102030;;;;
2021/05/27 20:32:21;;;;;;;6.1;3.0;;;;;;;11.8;68.1;102040;;;;
2021/05/27 20:34:21;;;;;;;6.1;3.0;;;;;;;11.7;68.1;102040;;;;
2021/05/27 20:40:27;;;;;;;6.1;3.0;;;;;;;11.6;68.3;102040;;;;
2021/05/27 20:44:21;;;;;;;6.1;3.0;;;;;;;11.5;68.0;102050;;;;
2021/05/27 20:46:23;;;;;;;6.1;3.0;;;;;;;11.4;68.3;102050;;;;
2021/05/27 20:48:21;;;;;;;6.1;3.0;;;;;;;11.5;68.1;102050;;;;
2021/05/27 20:52:21;;;;;;;9.6;3.5;;;;;;;11.4;67.8;102050;;;;
2021/05/27 20:56:21;;;;;;;9.6;3.5;;;;;;;11.3;68.1;102060;;;;
2021/05/27 21:00:22;;;;;;;9.6;3.5;;;;;;;11.2;68.3;102060;;;;
2021/05/27 21:02:22;;;;;;;9.6;3.5;;;;;;;11.1;68.6;102070;;;;
2021/05/27 21:06:21;;;;;;;9.6;3.5;;;;;;;11.0;68.6;102070;;;;
2021/05/27 21:16:21;;;;;;;7.1;3.7;;;;;;;10.9;68.5;102080;;;;
2021/05/27 21:20:22;;;;;;;7.1;3.7;;;;;;;10.8;68.5;102080;;;;
2021/05/27 21:28:22;;;;;;;7.1;3.7;;;;;;;10.7;68.7;102090;;;;
2021/05/27 21:32:21;;;;;;;6.1;3.6;;;;;;;10.6;68.8;102090;;;;
2021/05/27 21:38:22;;;;;;;6.1;3.6;;;;;;;10.5;69.0;102090;;;;
2021/05/27 21:46:22;;;;;;;6.1;3.6;;;;;;;10.4;69.1;102090;;;;
2021/05/27 21:54:21;;;;;;;6.9;4.4;;;;;;;10.3;69.0;102100;;;;
2021/05/27 21:58:21;;;;;;;6.9;4.4;;;;;;;10.2;69.3;102100;;;;
2021/05/27 22:04:23;;;;;;;6.9;4.4;;;;;;;10.1;69.3;102110;;;;
2021/05/27 22:10:22;;;;;;;7.0;4.4;;;;;;;10.2;69.5;102110;;;;
2021/05/27 22:12:21;;;;;;;7.0;4.4;;;;;;;10.1;69.3;102110;;;;
2021/05/27 22:16:21;;;;;;;7.0;4.4;;;;;;;10.0;69.8;102110;;;;
2021/05/27 22:24:21;;;;;;;7.0;4.4;;;;;;;9.9;70.1;102110;;;;
2021/05/27 22:30:21;;;;;;;6.6;4.7;;;;;;;10.0;69.5;102120;;;;
2021/05/27 22:32:21;;;;;;;6.6;4.7;;;;;;;9.9;69.7;102120;;;;
2021/05/27 22:34:21;;;;;;;6.6;4.7;;;;;;;9.8;69.6;102120;;;;
2021/05/27 22:42:21;;;;;;;6.6;4.7;;;;;;;9.7;69.9;102130;;;;
2021/05/27 22:46:21;;;;;;;6.6;4.7;;;;;;;9.6;70.2;102130;;;;
2021/05/27 22:50:25;;;;;;;8.0;5.0;;;;;;;9.7;69.6;102130;;;;
2021/05/27 22:52:21;;;;;;;8.0;5.0;;;;;;;9.6;70.0;102130;;;;
2021/05/27 22:56:21;;;;;;;8.0;5.0;;;;;;;9.5;69.9;102140;;;;
2021/05/27 23:04:21;;;;;;;8.0;5.0;;;;;;;9.4;69.8;102130;;;;
2021/05/27 23:14:21;;;;;;;6.3;5.2;;;;;;;9.3;69.8;102140;;;;
2021/05/27 23:18:21;;;;;;;6.3;5.2;;;;;;;9.2;70.0;102140;;;;
2021/05/27 23:26:22;;;;;;;6.3;5.2;;;;;;;9.1;70.1;102140;;;;
2021/05/27 23:34:21;;;;;;;7.7;5.9;;;;;;;9.0;70.2;102150;;;;
2021/05/27 23:40:21;;;;;;;7.7;5.9;;;;;;;8.9;70.4;102150;;;;
2021/05/27 23:46:21;;;;;;;7.7;5.9;;;;;;;8.8;70.2;102150;;;;
2021/05/27 23:48:21;;;;;;;7.7;5.9;;;;;;;8.9;70.3;102150;;;;
2021/05/27 23:52:21;;;;;;;8.0;6.7;;;;;;;8.8;70.1;102150;;;;
2021/05/27 23:58:21;;;;;;;8.0;6.7;;;;;;;8.7;70.1;102160;;;;
